Time;durP1;ratioP1;P1;durP2;ratioP2;P2;SDS_P1;SDS_P2;PMS_P1;PMS_P2;Temp;Humidity;BMP_temperature;BMP_pressure;BME280_temperature;BME280_humidity;BME280_pressure;Samples;Min_cycle;Max_cycle;Signal;HPM_P1;HPM_P2
2022/10/31 00:01:23;;;;;;;14.98;5.50;;;;;;;10.07;96.85;98996.16;4156493;28;20056;-73
2022/10/31 00:03:24;;;;;;;11.43;6.55;;;;;;;10.01;97.28;98994.84;4156160;28;20041;-73
2022/10/31 00:05:24;;;;;;;9.77;5.53;;;;;;;10.02;97.65;99003.94;4158357;28;20496;-73
2022/10/31 00:07:24;;;;;;;14.40;5.45;;;;;;;10.01;98.26;99005.91;4157250;28;20060;-73
2022/10/31 00:09:25;;;;;;;12.20;6.70;;;;;;;9.99;98.97;99010.97;4162908;28;20033;-73
2022/10/31 00:11:26;;;;;;;18.35;6.32;;;;;;;9.97;99.62;99009.75;4156437;28;20187;-73
2022/10/31 00:13:26;;;;;;;8.45;5.30;;;;;;;9.98;99.36;99003.84;4157958;28;20317;-73
2022/10/31 00:15:26;;;;;;;11.25;4.93;;;;;;;10.00;98.91;99009.81;4157221;28;20430;-73
2022/10/31 00:17:27;;;;;;;12.57;4.60;;;;;;;10.00;99.13;99007.06;4156427;28;20041;-73
2022/10/31 00:19:27;;;;;;;9.85;5.13;;;;;;;10.03;98.09;99008.31;4160236;28;20120;-73
2022/10/31 00:21:29;;;;;;;8.38;4.72;;;;;;;10.01;97.57;99005.91;4159761;28;20042;-73
2022/10/31 00:23:29;;;;;;;13.70;5.07;;;;;;;9.99;98.32;99004.66;4156266;28;20102;-73
2022/10/31 00:25:35;;;;;;;10.45;4.95;;;;;;;9.94;98.88;99004.97;4157949;28;20306;-73
2022/10/31 00:27:35;;;;;;;14.20;5.68;;;;;;;9.88;98.88;99009.16;4158087;28;20060;-73
2022/10/31 00:29:36;;;;;;;9.48;4.65;;;;;;;9.80;99.15;99005.44;4156457;28;20477;-73
2022/10/31 00:31:36;;;;;;;10.73;4.82;;;;;;;9.75;99.90;99005.69;4157778;28;20131;-73
2022/10/31 00:33:38;;;;;;;9.80;4.63;;;;;;;9.75;100.00;99006.50;4156555;28;20045;-73
2022/10/31 00:35:38;;;;;;;9.93;4.67;;;;;;;9.68;99.24;99008.28;4156246;28;20036;-73
2022/10/31 00:37:38;;;;;;;11.25;4.75;;;;;;;9.64;99.74;99010.19;4158466;28;20466;-73
2022/10/31 00:39:38;;;;;;;10.13;4.85;;;;;;;9.56;99.05;99009.22;4155733;28;20037;-73
2022/10/31 00:41:39;;;;;;;10.00;4.90;;;;;;;9.51;99.21;99007.50;4155320;28;20079;-73
2022/10/31 00:43:41;;;;;;;20.55;6.53;;;;;;;9.49;99.22;99020.88;4157172;28;20124;-73
2022/10/31 00:45:42;;;;;;;10.32;4.72;;;;;;;9.45;99.75;99010.91;4158427;28;20596;-73
2022/10/31 00:47:42;;;;;;;9.95;5.07;;;;;;;9.37;99.44;99009.94;4156257;28;20390;-73
2022/10/31 00:49:43;;;;;;;7.93;4.68;;;;;;;9.32;99.58;99007.44;4158085;28;20052;-73
2022/10/31 00:51:43;;;;;;;10.52;4.68;;;;;;;9.25;99.58;99016.34;4156281;28;20497;-73
2022/10/31 00:53:43;;;;;;;9.18;5.55;;;;;;;9.19;100.00;99012.25;4156670;28;20052;-73
2022/10/31 00:55:44;;;;;;;14.52;5.28;;;;;;;9.13;100.00;99012.88;4159528;28;20286;-73
2022/10/31 00:57:47;;;;;;;9.68;5.25;;;;;;;9.03;100.00;99011.44;4157340;28;20524;-73
2022/10/31 00:59:47;;;;;;;12.95;5.57;;;;;;;9.01;100.00;99019.25;4156835;28;20500;-73
2022/10/31 01:01:48;;;;;;;11.13;4.72;;;;;;;9.00;100.00;99010.19;4157574;28;20045;-72
2022/10/31 01:03:48;;;;;;;13.70;4.60;;;;;;;8.98;100.00;99026.31;4154893;28;20499;-73
2022/10/31 01:06:02;;;;;;;6.93;4.57;;;;;;;8.91;100.00;99008.75;4156361;28;20471;-73
2022/10/31 01:08:03;;;;;;;9.45;4.18;;;;;;;8.91;100.00;99014.25;4156873;28;20044;-73
2022/10/31 01:10:04;;;;;;;11.30;5.20;;;;;;;8.85;100.00;99016.47;4156436;28;20510;-73
2022/10/31 01:12:05;;;;;;;8.38;4.70;;;;;;;8.81;100.00;99018.34;4156474;28;20283;-73
2022/10/31 01:14:05;;;;;;;7.97;4.95;;;;;;;8.77;100.00;99019.41;4156228;28;20120;-73
2022/10/31 01:16:07;;;;;;;12.00;5.18;;;;;;;8.73;100.00;99020.09;4155605;28;20501;-73
2022/10/31 01:18:08;;;;;;;15.55;5.15;;;;;;;8.77;100.00;99016.63;4157901;28;20422;-73
2022/10/31 01:20:10;;;;;;;13.13;5.25;;;;;;;8.75;100.00;99018.94;4156806;28;20289;-73
2022/10/31 01:22:10;;;;;;;11.43;5.03;;;;;;;8.72;100.00;99017.72;4157600;28;20025;-73
2022/10/31 01:24:10;;;;;;;15.00;4.40;;;;;;;8.73;100.00;99016.56;4157542;28;20432;-72
2022/10/31 01:26:14;;;;;;;9.80;4.50;;;;;;;8.65;100.00;99015.56;4156176;28;20030;-73
2022/10/31 01:28:14;;;;;;;6.65;4.18;;;;;;;8.62;100.00;99012.72;4156703;28;20018;-73
2022/10/31 01:30:15;;;;;;;6.20;4.30;;;;;;;8.62;100.00;99010.75;4156845;28;20551;-73
2022/10/31 01:32:15;;;;;;;9.75;4.30;;;;;;;8.56;100.00;99011.34;4155709;28;20068;-73
2022/10/31 01:34:17;;;;;;;9.25;4.47;;;;;;;8.55;100.00;99015.25;4154723;28;20114;-73
2022/10/31 01:36:19;;;;;;;9.47;4.63;;;;;;;8.58;100.00;99009.03;4158803;28;20469;-73
2022/10/31 01:38:19;;;;;;;7.33;4.33;;;;;;;8.57;100.00;99010.19;4155153;28;20299;-73
2022/10/31 01:40:19;;;;;;;10.45;4.43;;;;;;;8.57;100.00;99011.00;4157116;28;20033;-73
2022/10/31 01:42:22;;;;;;;8.98;4.63;;;;;;;8.56;100.00;99014.09;4158076;28;20032;-73
2022/10/31 01:44:22;;;;;;;7.97;4.15;;;;;;;8.51;100.00;99015.16;4154525;28;20789;-72
2022/10/31 01:46:31;;;;;;;13.75;4.50;;;;;;;8.47;100.00;99018.97;4156167;28;20083;-73
2022/10/31 01:48:32;;;;;;;11.15;4.45;;;;;;;8.41;100.00;99024.72;4157219;28;20068;-72
2022/10/31 01:50:37;;;;;;;9.25;4.72;;;;;;;8.37;100.00;99023.84;4155026;28;20045;-73
2022/10/31 01:52:50;;;;;;;8.35;4.45;;;;;;;8.35;100.00;99036.34;4155823;28;20081;-73
2022/10/31 01:54:59;;;;;;;6.32;4.18;;;;;;;8.31;100.00;99044.50;4160835;28;20462;-73
2022/10/31 01:57:02;;;;;;;13.63;4.43;;;;;;;8.28;100.00;99039.69;4156719;28;20167;-73
2022/10/31 01:59:05;;;;;;;;;;;;;;;8.29;100.00;99034.97;4160835;28;20045;-72
2022/10/31 02:01:05;;;;;;;13.45;4.70;;;;;;;8.37;100.00;99029.34;4162294;28;20039;-73
2022/10/31 02:03:05;;;;;;;13.20;4.50;;;;;;;8.39;100.00;99029.00;4158392;28;20109;-73
2022/10/31 02:05:10;;;;;;;10.90;4.35;;;;;;;8.31;100.00;99038.19;4159459;28;20048;-73
2022/10/31 02:07:14;;;;;;;12.02;4.70;;;;;;;8.16;100.00;99028.69;4162390;28;20041;-73
2022/10/31 02:09:16;;;;;;;10.65;5.07;;;;;;;8.22;100.00;99029.25;4158166;28;20111;-73
2022/10/31 02:11:16;;;;;;;8.95;4.80;;;;;;;8.25;100.00;99042.31;4158836;28;20301;-73
2022/10/31 02:13:17;;;;;;;9.63;5.22;;;;;;;8.27;100.00;99031.75;4163024;28;20045;-73
2022/10/31 02:15:17;;;;;;;13.38;5.03;;;;;;;8.27;100.00;99038.06;4157299;28;20069;-73
2022/10/31 02:17:17;;;;;;;8.02;5.32;;;;;;;8.26;100.00;99032.91;4159342;28;20038;-73
2022/10/31 02:19:26;;;;;;;8.85;4.55;;;;;;;8.21;100.00;99033.97;4159680;28;20374;-73
2022/10/31 02:21:50;;;;;;;10.43;4.80;;;;;;;8.22;100.00;99032.81;4158621;28;20045;-73
2022/10/31 02:23:56;;;;;;;10.20;4.63;;;;;;;8.17;100.00;99044.06;4158806;28;20042;-73
2022/10/31 02:26:08;;;;;;;6.88;4.07;;;;;;;8.13;100.00;99035.69;4159937;28;20394;-73
2022/10/31 02:28:42;;;;;;;9.63;5.07;;;;;;;8.05;100.00;99033.09;4158351;28;20158;-72
2022/10/31 02:31:08;;;;;;;14.02;4.70;;;;;;;8.00;100.00;99017.56;4160235;28;20080;-73
2022/10/31 02:33:25;;;;;;;9.65;4.60;;;;;;;8.00;100.00;99022.28;4157711;28;20321;-73
2022/10/31 02:35:39;;;;;;;6.78;4.13;;;;;;;7.93;100.00;99025.63;4160686;28;20086;-73
2022/10/31 02:37:43;;;;;;;7.15;4.20;;;;;;;7.86;100.00;99029.00;4157257;28;20127;-73
2022/10/31 02:39:47;;;;;;;9.27;4.25;;;;;;;7.88;100.00;99020.38;4158231;28;20077;-73
2022/10/31 02:41:55;;;;;;;12.80;4.40;;;;;;;7.88;100.00;99025.88;4159539;28;20794;-73
2022/10/31 02:44:08;;;;;;;7.03;3.90;;;;;;;7.92;100.00;99020.47;4157093;28;20068;-73
2022/10/31 02:46:18;;;;;;;7.88;4.20;;;;;;;7.86;100.00;99023.47;4158725;28;20099;-73
2022/10/31 02:48:22;;;;;;;8.05;4.88;;;;;;;7.78;100.00;99029.91;4159720;28;20233;-72
2022/10/31 02:50:28;;;;;;;5.78;3.85;;;;;;;7.71;100.00;99024.19;4159349;28;20087;-72
2022/10/31 02:52:30;;;;;;;8.13;4.05;;;;;;;7.73;100.00;99032.91;4156259;28;20803;-72
2022/10/31 02:54:31;;;;;;;8.27;4.50;;;;;;;7.72;100.00;99030.50;4156814;28;20069;-73
2022/10/31 02:56:31;;;;;;;6.28;4.15;;;;;;;7.69;100.00;99026.44;4156075;28;20037;-72
2022/10/31 02:58:37;;;;;;;10.35;4.20;;;;;;;7.65;100.00;99028.31;4163440;28;20076;-73
2022/10/31 03:00:50;;;;;;;6.65;3.70;;;;;;;7.57;100.00;99031.97;4156228;28;20674;-72
2022/10/31 03:03:18;;;;;;;6.15;3.70;;;;;;;7.49;100.00;99024.63;4158664;28;20037;-72
2022/10/31 03:05:33;;;;;;;6.60;3.90;;;;;;;7.51;100.00;99038.84;4156342;28;20056;-73
2022/10/31 03:08:11;;;;;;;7.47;4.05;;;;;;;7.45;100.00;99043.81;4160861;28;20045;-73
2022/10/31 03:10:24;;;;;;;6.05;3.85;;;;;;;7.40;100.00;99038.53;4158435;28;20068;-73
2022/10/31 03:12:36;;;;;;;6.75;4.80;;;;;;;7.42;100.00;99049.97;4157741;28;20728;-72
2022/10/31 03:14:46;;;;;;;7.05;3.78;;;;;;;7.39;100.00;99036.91;4157009;28;20054;-72
2022/10/31 03:16:49;;;;;;;8.90;4.38;;;;;;;7.32;100.00;99045.72;4159868;28;20044;-73
2022/10/31 03:18:56;;;;;;;7.00;4.32;;;;;;;7.29;100.00;99045.63;4161271;28;20061;-73
2022/10/31 03:21:14;;;;;;;7.82;3.78;;;;;;;7.25;100.00;99048.25;4157449;28;20167;-72
2022/10/31 03:23:18;;;;;;;7.22;4.40;;;;;;;7.28;100.00;99053.09;4158787;28;20072;-73
2022/10/31 03:25:18;;;;;;;6.97;3.83;;;;;;;7.32;100.00;99048.50;4156751;28;20045;-73
2022/10/31 03:27:23;;;;;;;6.50;4.18;;;;;;;7.27;100.00;99047.91;4156358;28;20357;-73
2022/10/31 03:29:28;;;;;;;7.72;4.25;;;;;;;7.23;100.00;99053.28;4157397;28;21072;-73
2022/10/31 03:31:35;;;;;;;5.80;3.75;;;;;;;7.22;100.00;99059.16;4155412;28;20046;-73
2022/10/31 03:33:39;;;;;;;6.97;3.75;;;;;;;7.30;100.00;99061.78;4155737;28;20548;-73
2022/10/31 03:35:44;;;;;;;10.60;3.63;;;;;;;7.33;100.00;99065.81;4160630;28;20091;-73
2022/10/31 03:37:46;;;;;;;7.25;4.00;;;;;;;7.29;100.00;99062.16;4158159;28;20534;-72
2022/10/31 03:39:49;;;;;;;16.15;4.55;;;;;;;7.18;100.00;99063.72;4156528;28;20389;-73
2022/10/31 03:42:02;;;;;;;5.90;4.05;;;;;;;7.11;100.00;99077.22;4156690;28;20422;-72
2022/10/31 03:44:12;;;;;;;7.05;4.05;;;;;;;7.04;100.00;99066.78;4154976;28;20136;-72
2022/10/31 03:46:12;;;;;;;9.80;4.45;;;;;;;7.01;100.00;99070.22;4156299;28;20167;-72
2022/10/31 03:48:14;;;;;;;9.77;4.30;;;;;;;7.01;100.00;99072.97;4155847;28;20611;-73
2022/10/31 03:50:16;;;;;;;7.65;3.92;;;;;;;7.02;100.00;99069.88;4155399;28;20037;-73
2022/10/31 03:52:41;;;;;;;6.35;4.05;;;;;;;7.09;100.00;99074.81;4155586;28;20025;-73
2022/10/31 03:54:48;;;;;;;7.50;3.92;;;;;;;7.10;100.00;99062.66;4155628;28;20309;-73
2022/10/31 03:57:20;;;;;;;7.93;4.57;;;;;;;7.16;100.00;99074.25;4161473;28;20659;-73
2022/10/31 03:59:34;;;;;;;10.38;3.50;;;;;;;7.18;100.00;99078.28;4157028;28;20049;-73
2022/10/31 04:01:44;;;;;;;6.45;4.13;;;;;;;7.21;100.00;99080.38;4158944;28;20115;-73
2022/10/31 04:03:46;;;;;;;6.47;3.90;;;;;;;7.32;100.00;99080.72;4154633;28;20048;-73
2022/10/31 04:05:49;;;;;;;7.95;3.90;;;;;;;7.38;100.00;99076.59;4157995;28;20049;-72
2022/10/31 04:07:54;;;;;;;7.65;3.83;;;;;;;7.40;100.00;99081.75;4161944;28;20049;-72
2022/10/31 04:09:56;;;;;;;10.90;5.63;;;;;;;7.40;100.00;99076.25;4157697;28;20056;-73
2022/10/31 04:12:00;;;;;;;9.73;4.22;;;;;;;7.34;100.00;99075.66;4161485;28;20076;-73
2022/10/31 04:14:02;;;;;;;8.48;4.40;;;;;;;7.29;100.00;99073.97;4156149;28;20064;-73
2022/10/31 04:16:03;;;;;;;7.78;4.40;;;;;;;7.21;100.00;99074.84;4155496;28;20076;-73
2022/10/31 04:18:04;;;;;;;8.50;4.57;;;;;;;7.18;100.00;99086.53;4154723;28;20033;-73
2022/10/31 04:20:05;;;;;;;7.13;3.97;;;;;;;7.14;100.00;99090.31;4155797;28;20466;-72
2022/10/31 04:22:06;;;;;;;12.13;4.35;;;;;;;7.11;100.00;99088.22;4154794;28;20118;-73
2022/10/31 04:24:06;;;;;;;12.07;4.32;;;;;;;7.07;100.00;99081.81;4154874;28;20030;-73
2022/10/31 04:26:10;;;;;;;8.52;4.30;;;;;;;7.04;100.00;99092.38;4155616;28;20048;-73
2022/10/31 04:28:10;;;;;;;13.20;4.10;;;;;;;6.98;100.00;99087.41;4157316;28;20704;-72
2022/10/31 04:30:11;;;;;;;11.30;4.53;;;;;;;6.89;100.00;99082.00;4157354;28;20068;-73
2022/10/31 04:32:11;;;;;;;12.05;4.85;;;;;;;6.79;100.00;99087.13;4158157;28;20531;-73
2022/10/31 04:34:11;;;;;;;8.73;4.63;;;;;;;6.78;100.00;99077.25;4154500;28;21005;-73
2022/10/31 04:36:11;;;;;;;10.07;4.50;;;;;;;6.76;100.00;99083.06;4154735;28;20029;-73
2022/10/31 04:38:12;;;;;;;11.68;4.88;;;;;;;6.76;100.00;99080.34;4155264;28;20068;-73
2022/10/31 04:40:12;;;;;;;7.55;4.45;;;;;;;6.74;100.00;99086.19;4156113;28;20061;-72
2022/10/31 04:42:12;;;;;;;7.88;4.28;;;;;;;6.66;100.00;99087.06;4154540;28;20130;-73
2022/10/31 04:44:13;;;;;;;6.70;3.50;;;;;;;6.67;100.00;99083.16;4154557;28;20049;-73
2022/10/31 04:46:13;;;;;;;7.00;4.38;;;;;;;6.61;100.00;99078.19;4156110;28;20061;-72
2022/10/31 04:48:13;;;;;;;7.15;4.07;;;;;;;6.67;100.00;99080.41;4155668;28;20128;-72
2022/10/31 04:50:14;;;;;;;6.82;4.10;;;;;;;6.71;100.00;99072.31;4159427;28;20029;-72
2022/10/31 04:52:14;;;;;;;8.23;4.28;;;;;;;6.72;100.00;99073.91;4153758;28;20525;-72
2022/10/31 04:54:15;;;;;;;6.38;3.80;;;;;;;6.74;100.00;99077.91;4154254;28;20037;-72
2022/10/31 04:56:15;;;;;;;8.77;4.20;;;;;;;6.79;100.00;99084.38;4155702;28;20155;-72
2022/10/31 04:58:15;;;;;;;22.75;5.72;;;;;;;6.81;100.00;99073.81;4156603;28;20029;-73
2022/10/31 05:00:18;;;;;;;8.48;4.63;;;;;;;6.76;100.00;99078.38;4157734;28;20863;-72
2022/10/31 05:02:18;;;;;;;8.40;3.97;;;;;;;6.74;100.00;99079.88;4157634;28;20520;-72
2022/10/31 05:04:19;;;;;;;13.15;4.85;;;;;;;6.67;100.00;99080.41;4156070;28;20029;-73
2022/10/31 05:06:19;;;;;;;10.30;5.03;;;;;;;6.58;100.00;99076.94;4154487;28;20061;-72
2022/10/31 05:08:19;;;;;;;8.90;5.28;;;;;;;6.52;100.00;99085.72;4156001;28;20037;-72
2022/10/31 05:10:22;;;;;;;10.85;4.70;;;;;;;6.38;100.00;99084.06;4154625;28;20045;-72
2022/10/31 05:12:22;;;;;;;10.15;4.57;;;;;;;6.29;100.00;99083.34;4154210;28;20045;-72
2022/10/31 05:14:23;;;;;;;12.68;5.13;;;;;;;6.34;100.00;99085.06;4154425;28;20049;-73
2022/10/31 05:16:23;;;;;;;8.80;5.20;;;;;;;6.36;100.00;99082.78;4155483;28;20049;-72
2022/10/31 05:18:23;;;;;;;9.02;4.90;;;;;;;6.36;100.00;99069.84;4156984;28;20095;-72
2022/10/31 05:20:27;;;;;;;6.85;4.53;;;;;;;6.43;100.00;99075.59;4159932;28;20477;-72
2022/10/31 05:22:27;;;;;;;10.32;5.70;;;;;;;6.42;100.00;99078.69;4158403;28;20047;-72
2022/10/31 05:24:27;;;;;;;6.93;4.38;;;;;;;6.42;100.00;99070.44;4155228;28;20129;-73
2022/10/31 05:26:27;;;;;;;6.40;4.45;;;;;;;6.42;100.00;99070.44;4154963;28;20087;-73
2022/10/31 05:28:28;;;;;;;10.40;5.00;;;;;;;6.34;100.00;99066.63;4156179;28;20134;-73
2022/10/31 05:30:31;;;;;;;7.88;5.00;;;;;;;6.33;100.00;99075.22;4160088;28;20053;-73
2022/10/31 05:32:37;;;;;;;8.82;4.82;;;;;;;6.45;100.00;99078.00;4158743;28;20159;-73
2022/10/31 05:34:37;;;;;;;9.43;5.40;;;;;;;6.47;100.00;99078.50;4161809;28;20200;-73
2022/10/31 05:36:37;;;;;;;8.40;5.10;;;;;;;6.45;100.00;99081.59;4159700;28;20335;-72
2022/10/31 05:38:38;;;;;;;12.02;6.13;;;;;;;6.40;100.00;99067.22;4157456;28;20041;-72
2022/10/31 05:40:38;;;;;;;9.23;5.47;;;;;;;6.39;100.00;99076.63;4160225;28;20046;-72
2022/10/31 05:42:40;;;;;;;11.27;5.80;;;;;;;6.25;100.00;99070.59;4159144;28;20045;-73
2022/10/31 05:44:40;;;;;;;11.80;6.20;;;;;;;6.18;100.00;99080.16;4160015;28;20050;-73
2022/10/31 05:46:40;;;;;;;7.65;5.88;;;;;;;6.15;100.00;99077.28;4159597;28;20064;-73
2022/10/31 05:48:41;;;;;;;11.73;5.70;;;;;;;6.11;100.00;99081.81;4158963;28;20057;-72
2022/10/31 05:50:41;;;;;;;8.93;5.32;;;;;;;6.07;100.00;99076.22;4161873;28;20053;-72
2022/10/31 05:52:41;;;;;;;8.45;5.40;;;;;;;6.09;100.00;99082.16;4160399;28;20038;-73
2022/10/31 05:54:41;;;;;;;8.98;5.60;;;;;;;6.07;100.00;99075.41;4157673;28;20065;-72
2022/10/31 05:56:42;;;;;;;11.35;6.18;;;;;;;6.08;100.00;99077.00;4159335;28;20485;-72
2022/10/31 05:58:42;;;;;;;14.15;5.75;;;;;;;6.05;100.00;99083.19;4160676;28;20034;-72
2022/10/31 06:00:42;;;;;;;13.38;6.47;;;;;;;5.98;100.00;99078.22;4157698;28;20088;-72
2022/10/31 06:02:43;;;;;;;10.82;6.47;;;;;;;5.95;100.00;99081.59;4158218;28;20037;-72
2022/10/31 06:04:43;;;;;;;13.30;5.82;;;;;;;6.01;100.00;99080.28;4159133;28;20393;-72
2022/10/31 06:06:43;;;;;;;10.90;5.60;;;;;;;6.05;100.00;99078.50;4157665;28;20037;-72
2022/10/31 06:08:43;;;;;;;10.88;6.18;;;;;;;6.09;100.00;99086.84;4160730;28;20568;-72
2022/10/31 06:10:44;;;;;;;14.32;6.85;;;;;;;6.10;100.00;99089.25;4160780;28;20398;-73
2022/10/31 06:12:44;;;;;;;13.07;6.30;;;;;;;6.07;100.00;99087.19;4156478;28;20069;-72
2022/10/31 06:14:44;;;;;;;15.27;7.82;;;;;;;6.07;100.00;99089.13;4160126;28;20055;-72
2022/10/31 06:16:45;;;;;;;18.13;8.50;;;;;;;6.14;100.00;99081.19;4159716;28;20576;-72
2022/10/31 06:18:46;;;;;;;21.77;10.50;;;;;;;6.10;100.00;99089.25;4159977;28;20049;-72
2022/10/31 06:20:46;;;;;;;16.52;8.85;;;;;;;6.01;100.00;99088.53;4159867;28;20044;-72
2022/10/31 06:22:46;;;;;;;22.33;6.55;;;;;;;5.92;100.00;99079.53;4157478;28;20497;-72
2022/10/31 06:24:47;;;;;;;11.35;6.57;;;;;;;5.87;100.00;99080.47;4159946;28;20587;-72
2022/10/31 06:26:47;;;;;;;13.70;6.35;;;;;;;5.91;100.00;99083.41;4159107;28;20320;-72
2022/10/31 06:28:47;;;;;;;15.50;6.25;;;;;;;6.02;100.00;99092.06;4157551;28;20045;-72
2022/10/31 06:30:47;;;;;;;10.43;5.80;;;;;;;6.04;100.00;99087.88;4159637;28;20858;-72
2022/10/31 06:32:49;;;;;;;15.70;5.90;;;;;;;6.08;100.00;99105.28;4158626;28;20096;-72
2022/10/31 06:34:49;;;;;;;9.90;6.15;;;;;;;6.14;100.00;99098.47;4156452;28;20485;-72
2022/10/31 06:36:50;;;;;;;12.18;5.57;;;;;;;6.18;100.00;99101.34;4159474;28;20390;-72
2022/10/31 06:38:50;;;;;;;11.48;6.22;;;;;;;6.31;100.00;99104.97;4158463;28;20881;-72
2022/10/31 06:40:50;;;;;;;14.45;7.30;;;;;;;6.32;100.00;99101.09;4157054;28;20041;-72
2022/10/31 06:42:56;;;;;;;16.77;7.00;;;;;;;6.29;100.00;99104.50;4159113;28;20111;-72
2022/10/31 06:44:57;;;;;;;16.55;6.88;;;;;;;6.25;100.00;99104.38;4162791;28;20823;-72
2022/10/31 06:46:57;;;;;;;10.95;6.88;;;;;;;6.23;100.00;99112.16;4157446;28;20046;-72
2022/10/31 06:48:57;;;;;;;19.98;7.43;;;;;;;6.22;100.00;99115.22;4158995;28;20474;-72
2022/10/31 06:50:59;;;;;;;15.60;7.25;;;;;;;6.20;100.00;99112.78;4158318;28;20037;-74
2022/10/31 06:52:59;;;;;;;16.97;7.43;;;;;;;6.16;100.00;99114.59;4158467;28;20349;-72
2022/10/31 06:55:00;;;;;;;11.30;6.32;;;;;;;6.18;100.00;99117.81;4160065;28;20387;-72
2022/10/31 06:57:00;;;;;;;14.77;6.57;;;;;;;6.23;100.00;99112.16;4161493;28;20042;-72
2022/10/31 06:59:00;;;;;;;15.82;6.65;;;;;;;6.25;100.00;99114.56;4159698;28;21069;-72
2022/10/31 07:01:01;;;;;;;13.25;7.03;;;;;;;6.24;100.00;99118.44;4158990;28;20090;-72
2022/10/31 07:03:05;;;;;;;16.90;6.30;;;;;;;6.27;100.00;99115.00;4156243;28;20053;-72
2022/10/31 07:05:05;;;;;;;12.30;5.45;;;;;;;6.33;100.00;99114.50;4159230;28;20084;-72
2022/10/31 07:07:05;;;;;;;21.50;7.22;;;;;;;6.42;100.00;99122.66;4160603;28;20428;-72
2022/10/31 07:09:06;;;;;;;11.27;6.35;;;;;;;6.45;100.00;99117.31;4158357;28;20041;-72
2022/10/31 07:11:06;;;;;;;11.60;5.68;;;;;;;6.50;100.00;99119.06;4158899;28;20057;-72
2022/10/31 07:13:11;;;;;;;17.48;8.15;;;;;;;6.52;100.00;99130.50;4157283;28;20052;-72
2022/10/31 07:15:11;;;;;;;16.10;7.70;;;;;;;6.56;100.00;99128.72;4158910;28;20549;-72
2022/10/31 07:17:11;;;;;;;13.40;8.10;;;;;;;6.60;100.00;99131.59;4155235;28;20079;-72
2022/10/31 07:19:11;;;;;;;13.10;7.68;;;;;;;6.64;100.00;99136.09;4159945;28;20048;-72
2022/10/31 07:21:12;;;;;;;17.33;8.13;;;;;;;6.67;100.00;99132.66;4156645;28;20205;-72
2022/10/31 07:23:13;;;;;;;12.57;7.20;;;;;;;6.74;100.00;99137.63;4154321;28;20299;-72
2022/10/31 07:25:13;;;;;;;14.02;7.38;;;;;;;6.75;100.00;99128.22;4160529;28;20155;-72
2022/10/31 07:27:13;;;;;;;15.57;8.57;;;;;;;6.83;100.00;99137.53;4155180;28;20497;-72
2022/10/31 07:29:14;;;;;;;20.83;9.10;;;;;;;6.89;100.00;99136.22;4155627;28;20048;-72
2022/10/31 07:31:14;;;;;;;38.20;10.70;;;;;;;6.92;100.00;99135.53;4155667;28;20455;-72
2022/10/31 07:33:14;;;;;;;18.20;7.97;;;;;;;7.00;100.00;99140.94;4157988;28;20045;-72
2022/10/31 07:35:23;;;;;;;17.55;7.85;;;;;;;7.06;100.00;99138.00;4156497;28;20037;-72
2022/10/31 07:37:27;;;;;;;13.35;7.22;;;;;;;7.12;100.00;99125.63;4158617;28;20045;-72
2022/10/31 07:39:27;;;;;;;11.18;6.80;;;;;;;7.21;100.00;99129.09;4157719;28;20041;-72
2022/10/31 07:41:27;;;;;;;25.15;8.25;;;;;;;7.29;100.00;99133.72;4060722;28;20157;-72
2022/10/31 07:43:27;;;;;;;23.17;7.53;;;;;;;7.33;100.00;99135.44;4151838;28;20049;-72
2022/10/31 07:45:28;;;;;;;17.88;8.40;;;;;;;7.36;100.00;99138.63;4155535;28;20878;-72
2022/10/31 07:47:28;;;;;;;10.15;6.18;;;;;;;7.43;100.00;99133.38;4156219;28;20330;-72
2022/10/31 07:49:28;;;;;;;15.02;6.47;;;;;;;7.50;100.00;99128.91;4159726;28;20118;-72
2022/10/31 07:51:29;;;;;;;10.40;7.13;;;;;;;7.60;100.00;99133.97;4158748;28;20603;-72
2022/10/31 07:53:29;;;;;;;14.10;6.70;;;;;;;7.70;100.00;99130.00;4156849;28;20122;-72
2022/10/31 07:55:30;;;;;;;11.27;6.57;;;;;;;7.81;100.00;99127.59;4155320;28;20377;-72
2022/10/31 07:57:30;;;;;;;11.13;6.22;;;;;;;7.92;100.00;99125.16;4156282;28;20049;-72
2022/10/31 07:59:30;;;;;;;20.17;8.52;;;;;;;8.05;100.00;99129.53;4156082;28;20133;-72
2022/10/31 08:01:31;;;;;;;23.38;8.25;;;;;;;8.14;100.00;99125.50;4156269;28;20100;-72
2022/10/31 08:03:31;;;;;;;15.15;7.43;;;;;;;8.19;100.00;99127.22;4156155;28;20337;-72
2022/10/31 08:05:32;;;;;;;10.93;6.35;;;;;;;8.23;100.00;99125.38;4157366;28;20110;-72
2022/10/31 08:07:36;;;;;;;14.90;7.72;;;;;;;8.33;100.00;99132.38;4158316;28;20454;-72
2022/10/31 08:09:36;;;;;;;22.83;9.60;;;;;;;8.38;100.00;99130.22;4159518;28;20490;-72
2022/10/31 08:11:37;;;;;;;20.13;8.23;;;;;;;8.42;100.00;99128.34;4158705;28;20072;-72
2022/10/31 08:13:37;;;;;;;37.92;10.70;;;;;;;8.52;100.00;99126.25;4160807;28;20064;-72
2022/10/31 08:15:41;;;;;;;27.83;8.43;;;;;;;8.61;100.00;99126.97;4157537;28;20081;-72
2022/10/31 08:17:41;;;;;;;15.80;7.75;;;;;;;8.66;100.00;99124.72;4155755;28;20054;-72
2022/10/31 08:19:41;;;;;;;23.55;8.20;;;;;;;8.76;100.00;99126.19;4155922;28;20041;-72
2022/10/31 08:21:41;;;;;;;16.73;7.70;;;;;;;8.86;100.00;99130.44;4155300;28;20064;-72
2022/10/31 08:23:42;;;;;;;21.83;7.78;;;;;;;9.01;100.00;99115.84;4153551;28;20129;-72
2022/10/31 08:25:42;;;;;;;14.10;8.70;;;;;;;9.08;100.00;99127.09;4155399;28;20054;-72
2022/10/31 08:27:42;;;;;;;14.60;8.93;;;;;;;9.10;100.00;99116.53;4153911;28;20370;-72
2022/10/31 08:29:42;;;;;;;13.82;7.50;;;;;;;9.16;100.00;99117.88;4154333;28;20091;-73
2022/10/31 08:31:43;;;;;;;12.90;6.90;;;;;;;9.18;100.00;99120.25;4154164;28;20068;-72
2022/10/31 08:33:43;;;;;;;13.27;7.43;;;;;;;9.20;100.00;99113.25;4153568;28;20063;-73
2022/10/31 08:35:44;;;;;;;16.08;8.95;;;;;;;9.27;100.00;99113.44;4154416;28;20068;-72
2022/10/31 08:37:44;;;;;;;11.13;7.07;;;;;;;9.35;100.00;99108.91;4157391;28;20068;-72
2022/10/31 08:39:48;;;;;;;16.83;8.60;;;;;;;9.42;100.00;99103.56;4160630;28;20045;-72
2022/10/31 08:41:48;;;;;;;14.48;8.63;;;;;;;9.49;100.00;99109.28;4155443;28;20072;-73
2022/10/31 08:43:48;;;;;;;11.00;7.30;;;;;;;9.57;100.00;99107.50;4158429;28;20068;-72
2022/10/31 08:45:49;;;;;;;10.50;6.68;;;;;;;9.67;100.00;99106.94;4154217;28;20507;-72
2022/10/31 08:47:49;;;;;;;12.35;7.18;;;;;;;9.76;100.00;99104.00;4162806;28;20489;-72
2022/10/31 08:49:50;;;;;;;10.95;6.88;;;;;;;9.81;100.00;99103.75;4155981;28;20061;-72
2022/10/31 08:51:50;;;;;;;11.07;6.70;;;;;;;9.83;100.00;99091.16;4156805;28;20172;-72
2022/10/31 08:53:50;;;;;;;12.25;6.60;;;;;;;9.88;100.00;99092.06;4155054;28;20394;-72
2022/10/31 08:55:54;;;;;;;12.07;6.90;;;;;;;9.93;100.00;99095.38;4153520;28;20134;-72
2022/10/31 08:57:58;;;;;;;10.00;6.28;;;;;;;9.99;100.00;99093.13;4159568;28;20668;-72
2022/10/31 08:59:58;;;;;;;13.38;7.95;;;;;;;10.03;100.00;99088.47;4153597;28;20377;-72
2022/10/31 09:01:58;;;;;;;10.77;6.63;;;;;;;10.10;100.00;99094.97;4154387;28;20053;-73
2022/10/31 09:03:59;;;;;;;11.30;6.55;;;;;;;10.16;100.00;99091.91;4156225;28;20347;-73
2022/10/31 09:06:02;;;;;;;9.68;6.10;;;;;;;10.18;100.00;99098.72;4156974;28;20045;-73
2022/10/31 09:08:05;;;;;;;9.60;6.40;;;;;;;10.24;100.00;99099.25;4154910;28;20095;-72
2022/10/31 09:10:05;;;;;;;;;;;;;;;10.30;100.00;99098.63;4154891;28;20021;-72
2022/10/31 09:12:05;;;;;;;14.25;6.78;;;;;;;10.34;100.00;99095.91;4155265;28;19919;-73
2022/10/31 09:14:06;;;;;;;10.40;7.88;;;;;;;10.41;100.00;99099.63;4155022;28;20029;-73
2022/10/31 09:16:06;;;;;;;9.60;6.88;;;;;;;10.47;100.00;99104.91;4112724;28;20090;-72
2022/10/31 09:18:08;;;;;;;15.30;7.40;;;;;;;10.57;100.00;99096.03;4155790;28;20462;-73
2022/10/31 09:20:09;;;;;;;12.10;6.97;;;;;;;10.62;100.00;99088.25;4154623;28;20353;-73
2022/10/31 09:22:09;;;;;;;12.27;7.15;;;;;;;10.64;100.00;99096.19;4155626;28;20067;-73
2022/10/31 09:24:09;;;;;;;13.50;7.85;;;;;;;10.73;100.00;99094.00;4158663;28;20057;-73
2022/10/31 09:26:10;;;;;;;11.32;7.18;;;;;;;10.82;100.00;99093.78;4158296;28;20030;-72
2022/10/31 09:28:12;;;;;;;11.10;7.18;;;;;;;10.92;100.00;99085.69;4153282;28;20022;-73
2022/10/31 09:30:13;;;;;;;10.68;7.57;;;;;;;11.01;100.00;99092.97;4154303;28;20444;-73
2022/10/31 09:32:13;;;;;;;10.48;7.18;;;;;;;11.04;100.00;99081.97;4163575;28;20031;-73
2022/10/31 09:34:13;;;;;;;12.20;7.50;;;;;;;11.12;100.00;99094.78;4153709;28;20103;-73